createdAt,value
2022-10-16T00:01:38.538Z,19.20
2022-10-16T00:04:06.715Z,19.10
2022-10-16T00:06:34.695Z,19.10
2022-10-16T00:09:02.529Z,18.60
2022-10-16T00:11:34.227Z,18.70
2022-10-16T00:14:04.059Z,19.00
2022-10-16T00:16:33.663Z,19.00
2022-10-16T00:19:01.404Z,18.90
2022-10-16T00:21:31.144Z,19.00
2022-10-16T00:24:01.205Z,19.00
2022-10-16T00:26:30.991Z,19.00
2022-10-16T00:28:58.780Z,18.90
2022-10-16T00:31:26.973Z,18.90
2022-10-16T00:33:56.148Z,19.00
2022-10-16T00:36:26.127Z,18.90
2022-10-16T00:38:55.670Z,18.90
2022-10-16T00:41:26.003Z,18.80
2022-10-16T00:43:55.766Z,18.80
2022-10-16T00:46:26.133Z,18.80
2022-10-16T00:48:59.677Z,18.80
2022-10-16T00:51:32.205Z,18.80
2022-10-16T00:54:00.946Z,18.80
2022-10-16T00:56:28.740Z,18.90
2022-10-16T00:58:56.497Z,18.90
2022-10-16T01:01:24.214Z,18.80
2022-10-16T01:03:52.022Z,18.70
2022-10-16T01:06:38.431Z,18.70
2022-10-16T01:09:16.218Z,18.80
2022-10-16T01:11:50.635Z,18.80
2022-10-16T01:14:24.855Z,18.80
2022-10-16T01:17:00.656Z,18.80
2022-10-16T01:19:51.781Z,18.80
2022-10-16T01:22:23.142Z,18.60
2022-10-16T01:24:51.992Z,18.40
2022-10-16T01:27:25.024Z,18.40
2022-10-16T01:29:56.782Z,18.40
2022-10-16T01:32:32.701Z,18.30
2022-10-16T01:35:04.071Z,18.20
2022-10-16T01:37:37.418Z,18.10
2022-10-16T01:40:11.027Z,18.20
2022-10-16T01:42:43.933Z,18.00
2022-10-16T01:45:15.405Z,17.80
2022-10-16T01:47:44.753Z,17.80
2022-10-16T01:50:14.317Z,17.80
2022-10-16T01:52:45.924Z,17.90
2022-10-16T01:55:16.458Z,17.90
2022-10-16T01:57:49.953Z,18.00
2022-10-16T02:00:20.925Z,18.10
2022-10-16T02:02:54.215Z,18.10
2022-10-16T02:05:26.529Z,18.10
2022-10-16T02:07:54.588Z,17.80
2022-10-16T02:10:22.974Z,18.00
2022-10-16T02:12:58.511Z,18.10
2022-10-16T02:15:26.218Z,18.10
2022-10-16T02:17:53.923Z,18.00
2022-10-16T02:20:27.177Z,18.00
2022-10-16T02:22:57.566Z,18.00
2022-10-16T02:25:28.881Z,18.00
2022-10-16T02:28:03.795Z,17.90
2022-10-16T02:30:38.450Z,18.00
2022-10-16T02:33:09.258Z,17.90
2022-10-16T02:35:37.768Z,17.90
2022-10-16T02:38:07.452Z,17.60
2022-10-16T02:40:35.681Z,17.80
2022-10-16T02:43:06.546Z,17.70
2022-10-16T02:45:35.197Z,17.80
2022-10-16T02:48:02.965Z,17.70
2022-10-16T02:50:30.795Z,17.70
2022-10-16T02:52:58.474Z,17.70
2022-10-16T02:55:26.244Z,17.70
2022-10-16T02:57:54.110Z,17.70
2022-10-16T03:00:23.179Z,17.80
2022-10-16T03:02:50.955Z,17.70
2022-10-16T03:05:19.152Z,17.60
2022-10-16T03:07:46.926Z,17.70
2022-10-16T03:10:14.829Z,17.70
2022-10-16T03:12:42.565Z,17.60
2022-10-16T03:15:11.073Z,17.80
2022-10-16T03:17:40.151Z,17.90
2022-10-16T03:20:08.887Z,17.90
2022-10-16T03:22:36.614Z,17.70
2022-10-16T03:25:04.604Z,17.70
2022-10-16T03:27:32.430Z,17.80
2022-10-16T03:30:00.204Z,17.80
2022-10-16T03:32:29.523Z,17.90
2022-10-16T03:34:58.694Z,18.00
2022-10-16T03:37:27.178Z,18.00
2022-10-16T03:39:55.818Z,18.00
2022-10-16T03:42:23.709Z,18.10
2022-10-16T03:44:51.413Z,18.10
2022-10-16T03:47:22.537Z,18.10
2022-10-16T03:49:50.306Z,18.20
2022-10-16T03:54:52.083Z,18.30
2022-10-16T03:57:21.570Z,18.30
2022-10-16T03:59:49.272Z,18.40
2022-10-16T04:02:17.065Z,18.40
2022-10-16T04:04:44.786Z,18.40
2022-10-16T04:07:12.538Z,18.30
2022-10-16T04:09:41.667Z,18.30
2022-10-16T04:12:09.504Z,18.20
2022-10-16T04:14:37.302Z,18.20
2022-10-16T04:17:05.087Z,18.20
2022-10-16T04:19:32.772Z,18.20
2022-10-16T04:22:00.443Z,18.10
2022-10-16T04:24:28.215Z,18.10
2022-10-16T04:26:57.654Z,18.00
2022-10-16T04:29:25.482Z,17.90
2022-10-16T04:31:53.298Z,18.00
2022-10-16T04:34:21.050Z,18.00
2022-10-16T04:36:50.181Z,18.00
2022-10-16T04:39:18.339Z,18.00
2022-10-16T04:41:46.038Z,18.00
2022-10-16T04:44:15.298Z,18.00
2022-10-16T04:46:42.987Z,17.90
2022-10-16T04:49:10.758Z,17.90
2022-10-16T04:51:38.486Z,17.70
2022-10-16T04:54:06.232Z,17.70
2022-10-16T04:56:33.926Z,17.70
2022-10-16T04:59:01.671Z,17.60
2022-10-16T05:01:30.817Z,17.60
2022-10-16T05:03:58.581Z,17.60
2022-10-16T05:06:26.511Z,17.50
2022-10-16T05:08:54.190Z,17.50
2022-10-16T05:11:21.919Z,17.60
2022-10-16T05:13:50.994Z,17.40
2022-10-16T05:16:21.349Z,17.30
2022-10-16T05:18:53.172Z,17.30
2022-10-16T05:21:23.765Z,17.20
2022-10-16T05:23:51.549Z,17.20
2022-10-16T05:26:19.213Z,17.40
2022-10-16T05:28:46.974Z,17.50
2022-10-16T05:31:14.718Z,17.50
2022-10-16T05:33:42.562Z,17.60
2022-10-16T05:36:12.456Z,17.60
2022-10-16T05:38:41.014Z,17.70
2022-10-16T05:41:08.948Z,17.60
2022-10-16T05:43:36.661Z,17.70
2022-10-16T05:46:06.186Z,17.60
2022-10-16T05:48:34.319Z,17.60
2022-10-16T05:51:03.721Z,17.60
2022-10-16T05:53:34.454Z,17.60
2022-10-16T05:56:02.253Z,17.60
2022-10-16T05:58:31.927Z,17.60
2022-10-16T06:01:01.706Z,17.60
2022-10-16T06:03:29.883Z,17.60
2022-10-16T06:05:57.698Z,17.60
2022-10-16T06:08:25.905Z,17.70
2022-10-16T06:11:03.958Z,17.70
2022-10-16T06:13:32.566Z,17.70
2022-10-16T06:16:01.436Z,17.70
2022-10-16T06:18:30.406Z,17.70
2022-10-16T06:20:59.006Z,17.60
2022-10-16T06:23:27.271Z,17.60
2022-10-16T06:25:55.021Z,17.60
2022-10-16T06:28:24.243Z,17.60
2022-10-16T06:31:04.196Z,17.60
2022-10-16T06:33:35.494Z,17.60
2022-10-16T06:36:04.139Z,17.70
2022-10-16T06:38:31.949Z,17.70
2022-10-16T06:41:00.289Z,17.70
2022-10-16T06:43:33.017Z,17.70
2022-10-16T06:46:02.178Z,17.70
2022-10-16T06:48:30.968Z,17.70
2022-10-16T06:51:00.260Z,17.70
2022-10-16T06:53:31.347Z,17.60
2022-10-16T06:56:09.470Z,17.70
2022-10-16T06:58:38.839Z,17.70
2022-10-16T07:01:07.377Z,17.60
2022-10-16T07:03:35.270Z,17.70
2022-10-16T07:06:04.723Z,17.80
2022-10-16T07:08:33.492Z,17.70
2022-10-16T07:11:02.046Z,17.90
2022-10-16T07:13:29.940Z,17.90
2022-10-16T07:15:59.058Z,17.90
2022-10-16T07:21:06.594Z,18.00
2022-10-16T07:23:34.517Z,18.20
2022-10-16T07:26:02.429Z,18.20
2022-10-16T07:28:30.715Z,18.20
2022-10-16T07:31:03.193Z,18.20
2022-10-16T07:33:31.107Z,18.40
2022-10-16T07:35:58.943Z,18.50
2022-10-16T07:38:26.662Z,18.40
2022-10-16T07:40:58.901Z,18.50
2022-10-16T07:43:27.077Z,18.50
2022-10-16T07:45:56.048Z,18.60
2022-10-16T07:48:26.347Z,18.70
2022-10-16T07:50:54.057Z,18.50
2022-10-16T07:53:24.842Z,18.80
2022-10-16T07:55:54.106Z,18.80
2022-10-16T07:58:21.851Z,18.70
2022-10-16T08:00:49.623Z,18.60
2022-10-16T08:03:17.393Z,18.80
2022-10-16T08:05:46.457Z,19.00
2022-10-16T08:08:15.626Z,19.10
2022-10-16T08:10:43.450Z,19.20
2022-10-16T08:13:11.277Z,19.20
2022-10-16T08:15:39.043Z,19.00
2022-10-16T08:18:07.364Z,19.30
2022-10-16T08:20:35.627Z,19.40
2022-10-16T08:23:05.153Z,19.70
2022-10-16T08:25:33.191Z,19.70
2022-10-16T08:28:00.881Z,19.90
2022-10-16T08:30:28.620Z,19.90
2022-10-16T08:32:56.374Z,19.90
2022-10-16T08:35:24.145Z,20.00
2022-10-16T08:37:51.910Z,20.00
2022-10-16T08:43:18.284Z,20.20
2022-10-16T08:46:06.025Z,20.30
2022-10-16T08:48:39.829Z,20.20
2022-10-16T08:51:09.157Z,20.30
2022-10-16T08:53:46.714Z,20.30
2022-10-16T08:56:15.999Z,20.20
2022-10-16T09:01:17.058Z,20.30
2022-10-16T09:03:57.486Z,20.60
2022-10-16T09:06:45.384Z,20.50
2022-10-16T09:09:41.715Z,20.50
2022-10-16T09:12:16.532Z,20.70
2022-10-16T09:15:01.511Z,20.50
2022-10-16T09:17:42.937Z,20.50
2022-10-16T09:20:33.519Z,20.70
2022-10-16T09:23:15.466Z,20.80
2022-10-16T09:25:48.531Z,21.00
2022-10-16T09:28:18.306Z,20.80
2022-10-16T09:30:46.868Z,20.80
2022-10-16T09:33:15.667Z,20.90
2022-10-16T09:35:46.102Z,20.90
2022-10-16T09:38:24.436Z,21.10
2022-10-16T09:41:02.535Z,21.10
2022-10-16T09:43:37.486Z,21.20
2022-10-16T09:46:07.483Z,21.40
2022-10-16T09:48:39.908Z,21.30
2022-10-16T09:51:20.239Z,21.20
2022-10-16T09:53:49.419Z,21.30
2022-10-16T09:56:24.840Z,21.30
2022-10-16T09:58:55.197Z,21.20
2022-10-16T10:01:24.962Z,21.30
2022-10-16T10:03:54.213Z,21.40
2022-10-16T10:06:26.413Z,21.50
2022-10-16T10:08:58.950Z,21.50
2022-10-16T10:11:41.240Z,21.60
2022-10-16T10:14:18.866Z,21.70
2022-10-16T10:16:46.839Z,21.70
2022-10-16T10:19:19.095Z,21.60
2022-10-16T10:21:47.484Z,21.80
2022-10-16T10:24:16.529Z,21.80
2022-10-16T10:26:51.200Z,21.90
2022-10-16T10:29:32.434Z,22.00
2022-10-16T10:32:14.689Z,22.20
2022-10-16T10:34:56.623Z,22.20
2022-10-16T10:37:43.987Z,21.80
2022-10-16T10:40:23.956Z,21.70
2022-10-16T10:42:59.670Z,22.00
2022-10-16T10:45:38.693Z,22.10
2022-10-16T10:48:19.371Z,22.00
2022-10-16T10:50:54.583Z,21.80
2022-10-16T10:53:32.124Z,21.80
2022-10-16T10:56:09.535Z,21.90
2022-10-16T10:59:03.154Z,21.80
2022-10-16T11:01:41.119Z,21.80
2022-10-16T11:04:27.607Z,22.10
2022-10-16T11:06:59.825Z,22.40
2022-10-16T11:09:31.790Z,22.60
2022-10-16T11:12:05.611Z,22.80
2022-10-16T11:14:38.526Z,22.50
2022-10-16T11:17:12.050Z,22.60
2022-10-16T11:19:43.656Z,22.70
2022-10-16T11:22:17.568Z,22.80
2022-10-16T11:24:50.677Z,23.10
2022-10-16T11:27:22.292Z,22.70
2022-10-16T11:29:58.575Z,23.10
2022-10-16T11:32:37.874Z,23.30
2022-10-16T11:35:16.962Z,23.30
2022-10-16T11:37:48.386Z,23.40
2022-10-16T11:40:24.603Z,23.50
2022-10-16T11:42:56.968Z,23.50
2022-10-16T11:45:33.011Z,23.40
2022-10-16T11:48:06.758Z,23.20
2022-10-16T11:50:40.654Z,23.30
2022-10-16T11:53:16.087Z,23.40
2022-10-16T11:55:47.155Z,23.20
2022-10-16T11:58:24.857Z,23.30
2022-10-16T12:01:00.778Z,23.30
2022-10-16T12:03:33.776Z,23.30
2022-10-16T12:06:13.353Z,23.20
2022-10-16T12:08:42.437Z,23.40
2022-10-16T12:11:12.035Z,23.30
2022-10-16T12:13:41.935Z,23.50
2022-10-16T12:16:23.629Z,23.30
2022-10-16T12:19:11.817Z,23.50
2022-10-16T12:21:39.801Z,23.60
2022-10-16T12:24:08.414Z,23.70
2022-10-16T12:26:40.374Z,23.70
2022-10-16T12:29:16.836Z,23.60
2022-10-16T12:31:57.448Z,23.60
2022-10-16T12:34:31.154Z,23.80
2022-10-16T12:37:11.276Z,23.60
2022-10-16T12:39:39.245Z,23.90
2022-10-16T12:42:21.621Z,23.90
2022-10-16T12:44:49.336Z,23.90
2022-10-16T12:47:25.668Z,24.10
2022-10-16T12:49:56.508Z,24.30
2022-10-16T12:52:30.229Z,24.40
2022-10-16T12:55:00.154Z,24.40
2022-10-16T12:57:39.034Z,24.30
2022-10-16T13:00:20.258Z,24.50
2022-10-16T13:03:07.721Z,24.20
2022-10-16T13:05:53.260Z,24.60
2022-10-16T13:08:41.581Z,24.40
2022-10-16T13:11:19.744Z,24.20
2022-10-16T13:14:05.232Z,24.30
2022-10-16T13:16:43.314Z,24.30
2022-10-16T13:19:21.135Z,24.50
2022-10-16T13:21:58.366Z,24.60
2022-10-16T13:24:43.999Z,24.50
2022-10-16T13:27:24.699Z,24.40
2022-10-16T13:29:57.038Z,24.40
2022-10-16T13:32:25.072Z,24.60
2022-10-16T13:34:54.492Z,24.60
2022-10-16T13:37:28.659Z,24.70
2022-10-16T13:40:13.863Z,24.70
2022-10-16T13:42:42.250Z,24.50
2022-10-16T13:45:20.422Z,24.60
2022-10-16T13:47:48.338Z,24.60
2022-10-16T13:50:18.033Z,24.60
2022-10-16T13:52:47.338Z,24.70
2022-10-16T13:55:16.180Z,24.50
2022-10-16T13:57:44.638Z,24.60
2022-10-16T14:00:24.767Z,24.70
2022-10-16T14:02:57.547Z,24.40
2022-10-16T14:05:25.399Z,24.40
2022-10-16T14:07:56.290Z,24.20
2022-10-16T14:10:27.652Z,24.10
2022-10-16T14:13:00.313Z,24.00
2022-10-16T14:15:28.461Z,24.30
2022-10-16T14:17:56.780Z,24.20
2022-10-16T14:20:28.260Z,24.20
2022-10-16T14:23:05.471Z,24.30
2022-10-16T14:25:34.318Z,24.10
2022-10-16T14:28:05.089Z,24.20
2022-10-16T14:30:35.042Z,24.30
2022-10-16T14:33:04.712Z,24.40
2022-10-16T14:35:34.122Z,24.50
2022-10-16T14:38:05.160Z,24.50
2022-10-16T14:40:35.033Z,24.50
2022-10-16T14:43:04.041Z,24.40
2022-10-16T14:45:34.729Z,24.40
2022-10-16T14:48:07.344Z,24.40
2022-10-16T14:50:35.037Z,24.60
2022-10-16T14:53:04.202Z,24.70
2022-10-16T14:55:31.914Z,24.80
2022-10-16T14:58:00.890Z,24.80
2022-10-16T15:00:29.005Z,24.70
2022-10-16T15:02:56.750Z,24.60
2022-10-16T15:05:27.164Z,24.70
2022-10-16T15:07:56.082Z,24.70
2022-10-16T15:10:27.688Z,24.80
2022-10-16T15:12:55.525Z,24.80
2022-10-16T15:15:28.918Z,24.70
2022-10-16T15:17:57.993Z,24.60
2022-10-16T15:20:26.356Z,24.70
2022-10-16T15:22:54.466Z,24.50
2022-10-16T15:25:33.082Z,24.60
2022-10-16T15:28:01.425Z,24.60
2022-10-16T15:30:29.360Z,24.50
2022-10-16T15:32:57.879Z,24.40
2022-10-16T15:35:25.684Z,24.40
2022-10-16T15:37:53.479Z,24.40
2022-10-16T15:40:22.326Z,24.30
2022-10-16T15:42:51.560Z,24.40
2022-10-16T15:45:20.654Z,24.40
2022-10-16T15:47:48.649Z,24.30
2022-10-16T15:50:17.280Z,24.40
2022-10-16T15:52:45.081Z,24.40
2022-10-16T15:55:15.806Z,24.30
2022-10-16T15:57:44.096Z,24.50
2022-10-16T16:00:15.847Z,24.40
2022-10-16T16:02:44.450Z,24.50
2022-10-16T16:05:13.242Z,24.40
2022-10-16T16:07:41.586Z,24.30
2022-10-16T16:10:11.899Z,24.30
2022-10-16T16:12:40.737Z,24.10
2022-10-16T16:15:10.807Z,24.10
2022-10-16T16:17:39.895Z,24.10
2022-10-16T16:20:08.816Z,24.00
2022-10-16T16:22:36.556Z,23.90
2022-10-16T16:25:04.583Z,23.70
2022-10-16T16:27:34.467Z,23.60
2022-10-16T16:30:02.445Z,23.40
2022-10-16T16:32:30.128Z,23.30
2022-10-16T16:34:59.165Z,23.20
2022-10-16T16:37:27.169Z,23.00
2022-10-16T16:39:56.033Z,22.90
2022-10-16T16:42:25.034Z,22.90
2022-10-16T16:44:52.800Z,22.80
2022-10-16T16:47:21.214Z,22.70
2022-10-16T16:49:48.921Z,22.50
2022-10-16T16:52:18.006Z,22.60
2022-10-16T16:54:52.294Z,22.50
2022-10-16T16:57:20.581Z,22.40
2022-10-16T16:59:48.350Z,22.40
2022-10-16T17:02:16.129Z,22.30
2022-10-16T17:04:43.866Z,22.30
2022-10-16T17:07:11.599Z,22.30
2022-10-16T17:09:40.683Z,22.20
2022-10-16T17:12:08.416Z,22.20
2022-10-16T17:14:36.114Z,22.20
2022-10-16T17:17:03.830Z,22.20
2022-10-16T17:19:31.733Z,22.30
2022-10-16T17:21:59.475Z,22.10
2022-10-16T17:24:27.266Z,22.10
2022-10-16T17:26:56.349Z,22.20
2022-10-16T17:29:24.051Z,22.10
2022-10-16T17:31:51.740Z,21.90
2022-10-16T17:34:19.782Z,21.90
2022-10-16T17:36:47.795Z,21.80
2022-10-16T17:39:18.915Z,21.70
2022-10-16T17:41:47.423Z,21.70
2022-10-16T17:44:20.744Z,21.70
2022-10-16T17:46:49.069Z,21.80
2022-10-16T17:49:17.233Z,21.90
2022-10-16T17:51:45.413Z,21.90
2022-10-16T17:54:15.164Z,22.00
2022-10-16T17:56:43.055Z,22.00
2022-10-16T17:59:12.490Z,21.90
2022-10-16T18:01:44.310Z,21.90
2022-10-16T18:04:14.060Z,22.00
2022-10-16T18:06:43.873Z,21.90
2022-10-16T18:09:14.970Z,21.90
2022-10-16T18:11:42.871Z,21.80
2022-10-16T18:14:14.444Z,21.70
2022-10-16T18:16:44.695Z,21.70
2022-10-16T18:19:12.949Z,21.70
2022-10-16T18:21:41.246Z,21.60
2022-10-16T18:24:10.049Z,21.70
2022-10-16T18:26:37.927Z,21.70
2022-10-16T18:29:05.834Z,21.50
2022-10-16T18:31:35.054Z,21.60
2022-10-16T18:34:05.403Z,21.40
2022-10-16T18:36:34.994Z,21.50
2022-10-16T18:39:09.197Z,21.50
2022-10-16T18:41:38.388Z,21.30
2022-10-16T18:44:08.031Z,21.40
2022-10-16T18:46:35.838Z,21.40
2022-10-16T18:49:05.107Z,21.10
2022-10-16T18:51:35.012Z,21.00
2022-10-16T18:54:04.998Z,21.00
2022-10-16T18:56:33.149Z,21.00
2022-10-16T18:59:02.719Z,21.00
2022-10-16T19:01:33.771Z,21.00
2022-10-16T19:04:03.575Z,21.00
2022-10-16T19:06:35.893Z,20.90
2022-10-16T19:09:04.407Z,20.90
2022-10-16T19:11:33.460Z,20.70
2022-10-16T19:14:02.962Z,20.70
2022-10-16T19:16:32.708Z,20.80
2022-10-16T19:19:02.800Z,20.70
2022-10-16T19:21:35.178Z,20.60
2022-10-16T19:24:04.617Z,20.70
2022-10-16T19:26:35.765Z,20.70
2022-10-16T19:29:07.005Z,20.60
2022-10-16T19:31:35.390Z,20.60
2022-10-16T19:34:06.564Z,20.70
2022-10-16T19:36:38.143Z,20.50
2022-10-16T19:39:08.739Z,20.40
2022-10-16T19:41:38.359Z,20.40
2022-10-16T19:44:08.005Z,20.20
2022-10-16T19:46:36.620Z,19.90
2022-10-16T19:49:06.044Z,19.90
2022-10-16T19:51:35.715Z,20.10
2022-10-16T19:54:06.116Z,19.80
2022-10-16T19:56:35.469Z,19.60
2022-10-16T19:59:04.438Z,19.60
2022-10-16T20:01:33.150Z,19.50
2022-10-16T20:04:01.109Z,19.50
2022-10-16T20:06:29.695Z,19.70
2022-10-16T20:08:59.107Z,19.80
2022-10-16T20:11:29.053Z,20.10
2022-10-16T20:13:56.831Z,20.20
2022-10-16T20:16:24.847Z,20.20
2022-10-16T20:18:53.758Z,20.20
2022-10-16T20:21:24.307Z,20.20
2022-10-16T20:23:52.357Z,20.00
2022-10-16T20:26:24.026Z,20.00
2022-10-16T20:28:51.932Z,19.90
2022-10-16T20:31:22.587Z,20.00
2022-10-16T20:33:50.916Z,20.10
2022-10-16T20:36:20.091Z,20.20
2022-10-16T20:38:48.313Z,20.20
2022-10-16T20:41:17.846Z,20.20
2022-10-16T20:43:48.508Z,20.20
2022-10-16T20:46:19.549Z,20.10
2022-10-16T20:48:47.872Z,20.20
2022-10-16T20:51:17.652Z,19.90
2022-10-16T20:53:46.477Z,20.00
2022-10-16T20:56:15.806Z,19.80
2022-10-16T20:58:43.558Z,20.00
2022-10-16T21:01:15.124Z,19.90
2022-10-16T21:03:44.729Z,20.00
2022-10-16T21:06:12.719Z,20.00
2022-10-16T21:08:42.639Z,19.80
2022-10-16T21:11:11.880Z,19.70
2022-10-16T21:13:40.001Z,19.50
2022-10-16T21:16:08.418Z,19.70
2022-10-16T21:18:40.751Z,19.80
2022-10-16T21:21:12.064Z,19.80
2022-10-16T21:23:39.745Z,19.80
2022-10-16T21:26:08.344Z,19.70
2022-10-16T21:28:36.222Z,19.60
2022-10-16T21:31:12.532Z,19.60
2022-10-16T21:33:42.382Z,19.60
2022-10-16T21:36:14.680Z,19.40
2022-10-16T21:38:42.657Z,19.30
2022-10-16T21:41:15.307Z,19.60
2022-10-16T21:43:43.068Z,19.50
2022-10-16T21:46:10.926Z,19.50
2022-10-16T21:48:39.293Z,19.70
2022-10-16T21:51:08.527Z,19.70
2022-10-16T21:53:36.278Z,19.60
2022-10-16T21:56:04.842Z,19.60
2022-10-16T21:58:33.581Z,19.70
2022-10-16T22:01:08.067Z,19.60
2022-10-16T22:03:35.982Z,19.70
2022-10-16T22:06:06.565Z,19.80
2022-10-16T22:08:36.469Z,19.90
2022-10-16T22:11:05.663Z,19.80
2022-10-16T22:13:33.836Z,19.80
2022-10-16T22:16:01.762Z,19.70
2022-10-16T22:18:30.053Z,19.70
2022-10-16T22:20:57.945Z,19.60
2022-10-16T22:23:26.144Z,19.50
2022-10-16T22:26:00.345Z,19.60
2022-10-16T22:28:28.156Z,19.50
2022-10-16T22:30:55.931Z,19.50
2022-10-16T22:33:23.681Z,19.40
2022-10-16T22:35:51.399Z,19.40
2022-10-16T22:38:19.145Z,19.30
2022-10-16T22:40:47.098Z,19.20
2022-10-16T22:43:16.198Z,19.10
2022-10-16T22:45:43.997Z,19.00
2022-10-16T22:48:11.729Z,19.20
2022-10-16T22:50:39.509Z,19.20
2022-10-16T22:53:07.222Z,19.20
2022-10-16T22:55:35.187Z,19.30
2022-10-16T22:58:02.877Z,19.40
2022-10-16T23:00:32.750Z,19.40
2022-10-16T23:03:00.498Z,19.50
2022-10-16T23:05:28.314Z,19.50
2022-10-16T23:07:56.047Z,19.50
2022-10-16T23:10:27.570Z,19.40
2022-10-16T23:12:55.230Z,19.40
2022-10-16T23:15:23.110Z,19.40
2022-10-16T23:17:52.281Z,19.30
2022-10-16T23:20:19.981Z,19.30
2022-10-16T23:22:47.655Z,19.30
2022-10-16T23:25:15.358Z,19.20
2022-10-16T23:27:43.117Z,19.20
2022-10-16T23:30:11.661Z,19.20
2022-10-16T23:32:39.401Z,19.20
2022-10-16T23:35:09.293Z,19.10
2022-10-16T23:37:37.046Z,19.00
2022-10-16T23:40:05.380Z,18.80
2022-10-16T23:42:33.169Z,18.80
2022-10-16T23:45:00.875Z,18.80
2022-10-16T23:47:28.929Z,18.90
2022-10-16T23:49:57.022Z,18.80
2022-10-16T23:52:26.155Z,18.90
2022-10-16T23:54:53.892Z,19.00
2022-10-16T23:57:21.582Z,19.00
2022-10-16T23:59:49.730Z,18.90
